Espanola, Canada
Current Conditions -  °F | °C
As of 8:00 AM on Thursday 30 Oct 2014 (Local Time) from CYZE Reporting Station
Overcast Overcast  
Wind Chill: 36°   Ceiling: 3100
Heat Index: 36°   Visibility: 9mi
Dew Point: 32°   Wind: 3mph
Humidity: 87%   Direction: 350°N
Pressure: 30.06"   Gusts: NA
Location:  46.25°N, 81.77°W
Report Text: CYZE 301200Z AUTO 35003KT 9SM BKN031 OVC075 02/M00 A3006 RMK SLP187
Loading
Personal Weather Stations






























Interactive Weather Map
Tropical Storm Tracking
New forecast layout! Learn more

10-Day Weather Forecast

Advertisements
Track Severe Weather on mobile